Terminal Aerodrome Forecast
Issued by NWS Newport/Morehead City, NC

Home | Current Version | Previous Version | Graphics & Text | Print | Product List | Glossary On
Versions: 1 2 3 4 5 6 7 8 9 10 11 12 13 14 15 16
028
FTUS42 KMHX 151924 AAA
TAFEWN
TAF AMD
KEWN 151924Z 1519/1618 35008KT P6SM BKN025
     FM152200 VRB04KT P6SM SCT025
     FM160800 VRB03KT P6SM SCT007
     FM161400 VRB04KT P6SM SCT250=

USA.gov is the U.S. government's official web portal to all federal, state and local government web resources and services.